sensor_id;sensor_type;location;lat;lon;timestamp;P1;durP1;ratioP1;P2;durP2;ratioP2
19848;SDS011;10085;51.120;6.956;2022-11-14T00:01:59;6.10;;;3.45;;
19848;SDS011;10085;51.120;6.956;2022-11-14T00:07:20;5.50;;;3.55;;
19848;SDS011;10085;51.120;6.956;2022-11-14T00:12:41;5.13;;;3.47;;
19848;SDS011;10085;51.120;6.956;2022-11-14T00:18:04;4.93;;;3.50;;
19848;SDS011;10085;51.120;6.956;2022-11-14T00:23:25;4.80;;;3.50;;
19848;SDS011;10085;51.120;6.956;2022-11-14T00:28:46;4.70;;;3.40;;
19848;SDS011;10085;51.120;6.956;2022-11-14T00:34:09;4.60;;;3.38;;
19848;SDS011;10085;51.120;6.956;2022-11-14T00:39:30;4.95;;;3.35;;
19848;SDS011;10085;51.120;6.956;2022-11-14T00:44:51;6.00;;;3.22;;
19848;SDS011;10085;51.120;6.956;2022-11-14T00:55:36;4.95;;;3.38;;
19848;SDS011;10085;51.120;6.956;2022-11-14T01:00:57;4.47;;;3.00;;
19848;SDS011;10085;51.120;6.956;2022-11-14T01:06:20;4.30;;;2.95;;
19848;SDS011;10085;51.120;6.956;2022-11-14T01:11:41;5.43;;;3.33;;
19848;SDS011;10085;51.120;6.956;2022-11-14T01:17:02;4.82;;;2.88;;
19848;SDS011;10085;51.120;6.956;2022-11-14T01:22:25;4.93;;;3.22;;
19848;SDS011;10085;51.120;6.956;2022-11-14T01:27:46;3.92;;;2.85;;
19848;SDS011;10085;51.120;6.956;2022-11-14T01:33:07;4.20;;;2.80;;
19848;SDS011;10085;51.120;6.956;2022-11-14T01:38:30;4.30;;;2.80;;
19848;SDS011;10085;51.120;6.956;2022-11-14T01:43:51;3.72;;;2.70;;
19848;SDS011;10085;51.120;6.956;2022-11-14T01:49:14;4.90;;;2.78;;
19848;SDS011;10085;51.120;6.956;2022-11-14T01:54:39;3.85;;;2.83;;
19848;SDS011;10085;51.120;6.956;2022-11-14T02:00:04;3.13;;;2.50;;
19848;SDS011;10085;51.120;6.956;2022-11-14T02:05:28;4.00;;;2.80;;
19848;SDS011;10085;51.120;6.956;2022-11-14T02:10:51;3.88;;;2.67;;
19848;SDS011;10085;51.120;6.956;2022-11-14T02:16:12;4.28;;;2.90;;
19848;SDS011;10085;51.120;6.956;2022-11-14T02:21:35;5.15;;;2.75;;
19848;SDS011;10085;51.120;6.956;2022-11-14T02:26:56;4.50;;;2.95;;
19848;SDS011;10085;51.120;6.956;2022-11-14T02:32:17;4.13;;;2.80;;
19848;SDS011;10085;51.120;6.956;2022-11-14T02:37:39;4.00;;;2.83;;
19848;SDS011;10085;51.120;6.956;2022-11-14T02:43:01;4.90;;;2.75;;
19848;SDS011;10085;51.120;6.956;2022-11-14T02:48:22;3.92;;;2.78;;
19848;SDS011;10085;51.120;6.956;2022-11-14T02:53:44;4.10;;;2.67;;
19848;SDS011;10085;51.120;6.956;2022-11-14T02:59:05;4.45;;;2.95;;
19848;SDS011;10085;51.120;6.956;2022-11-14T03:04:27;3.97;;;2.80;;
19848;SDS011;10085;51.120;6.956;2022-11-14T03:09:49;4.15;;;2.70;;
19848;SDS011;10085;51.120;6.956;2022-11-14T03:15:10;3.88;;;2.70;;
19848;SDS011;10085;51.120;6.956;2022-11-14T03:20:31;4.05;;;2.60;;
19848;SDS011;10085;51.120;6.956;2022-11-14T03:25:54;2.90;;;2.40;;
19848;SDS011;10085;51.120;6.956;2022-11-14T03:31:19;4.40;;;3.00;;
19848;SDS011;10085;51.120;6.956;2022-11-14T03:36:41;4.22;;;2.63;;
19848;SDS011;10085;51.120;6.956;2022-11-14T03:42:03;4.43;;;2.60;;
19848;SDS011;10085;51.120;6.956;2022-11-14T03:47:24;3.22;;;2.47;;
19848;SDS011;10085;51.120;6.956;2022-11-14T03:52:47;3.90;;;2.72;;
19848;SDS011;10085;51.120;6.956;2022-11-14T03:58:10;4.13;;;2.50;;
19848;SDS011;10085;51.120;6.956;2022-11-14T04:03:31;3.75;;;2.70;;
19848;SDS011;10085;51.120;6.956;2022-11-14T04:08:52;3.50;;;2.60;;
19848;SDS011;10085;51.120;6.956;2022-11-14T04:14:16;3.85;;;2.67;;
19848;SDS011;10085;51.120;6.956;2022-11-14T04:19:37;3.65;;;2.58;;
19848;SDS011;10085;51.120;6.956;2022-11-14T04:24:58;4.35;;;2.97;;
19848;SDS011;10085;51.120;6.956;2022-11-14T04:30:21;3.88;;;2.80;;
19848;SDS011;10085;51.120;6.956;2022-11-14T04:35:42;4.03;;;2.65;;
19848;SDS011;10085;51.120;6.956;2022-11-14T04:41:03;3.78;;;2.55;;
19848;SDS011;10085;51.120;6.956;2022-11-14T04:46:26;4.15;;;2.70;;
19848;SDS011;10085;51.120;6.956;2022-11-14T04:51:47;3.92;;;2.55;;
19848;SDS011;10085;51.120;6.956;2022-11-14T04:57:08;4.63;;;2.97;;
19848;SDS011;10085;51.120;6.956;2022-11-14T05:02:31;4.35;;;3.00;;
19848;SDS011;10085;51.120;6.956;2022-11-14T05:07:53;4.60;;;2.90;;
19848;SDS011;10085;51.120;6.956;2022-11-14T05:13:14;4.00;;;2.70;;
19848;SDS011;10085;51.120;6.956;2022-11-14T05:18:37;3.90;;;2.70;;
19848;SDS011;10085;51.120;6.956;2022-11-14T05:24:05;4.32;;;2.97;;
19848;SDS011;10085;51.120;6.956;2022-11-14T05:29:27;4.30;;;3.08;;
19848;SDS011;10085;51.120;6.956;2022-11-14T05:34:49;3.25;;;2.58;;
19848;SDS011;10085;51.120;6.956;2022-11-14T05:40:10;4.10;;;2.95;;
19848;SDS011;10085;51.120;6.956;2022-11-14T05:45:32;4.95;;;3.03;;
19848;SDS011;10085;51.120;6.956;2022-11-14T05:50:54;4.43;;;2.92;;
19848;SDS011;10085;51.120;6.956;2022-11-14T05:56:16;4.40;;;2.97;;
19848;SDS011;10085;51.120;6.956;2022-11-14T06:01:37;4.88;;;2.88;;
19848;SDS011;10085;51.120;6.956;2022-11-14T06:06:59;5.13;;;2.97;;
19848;SDS011;10085;51.120;6.956;2022-11-14T06:12:21;5.35;;;3.40;;
19848;SDS011;10085;51.120;6.956;2022-11-14T06:17:42;5.55;;;3.13;;
19848;SDS011;10085;51.120;6.956;2022-11-14T06:23:05;4.82;;;3.17;;
19848;SDS011;10085;51.120;6.956;2022-11-14T06:28:26;4.90;;;3.03;;
19848;SDS011;10085;51.120;6.956;2022-11-14T06:33:48;7.32;;;3.53;;
19848;SDS011;10085;51.120;6.956;2022-11-14T06:39:10;4.53;;;3.10;;
19848;SDS011;10085;51.120;6.956;2022-11-14T06:44:31;5.50;;;3.60;;
19848;SDS011;10085;51.120;6.956;2022-11-14T06:49:53;5.35;;;3.13;;
19848;SDS011;10085;51.120;6.956;2022-11-14T06:55:15;4.78;;;3.20;;
19848;SDS011;10085;51.120;6.956;2022-11-14T07:00:44;5.18;;;3.60;;
19848;SDS011;10085;51.120;6.956;2022-11-14T07:06:05;4.95;;;3.13;;
19848;SDS011;10085;51.120;6.956;2022-11-14T07:11:28;5.70;;;3.50;;
19848;SDS011;10085;51.120;6.956;2022-11-14T07:16:51;5.18;;;3.30;;
19848;SDS011;10085;51.120;6.956;2022-11-14T07:22:12;6.53;;;3.97;;
19848;SDS011;10085;51.120;6.956;2022-11-14T07:27:34;5.60;;;3.50;;
19848;SDS011;10085;51.120;6.956;2022-11-14T07:32:56;7.95;;;3.42;;
19848;SDS011;10085;51.120;6.956;2022-11-14T07:38:17;5.63;;;3.78;;
19848;SDS011;10085;51.120;6.956;2022-11-14T07:43:40;6.53;;;3.95;;
19848;SDS011;10085;51.120;6.956;2022-11-14T07:49:01;6.60;;;4.10;;
19848;SDS011;10085;51.120;6.956;2022-11-14T07:54:23;5.80;;;3.65;;
19848;SDS011;10085;51.120;6.956;2022-11-14T07:59:45;6.80;;;3.80;;
19848;SDS011;10085;51.120;6.956;2022-11-14T08:05:07;7.65;;;4.30;;
19848;SDS011;10085;51.120;6.956;2022-11-14T08:10:28;7.03;;;4.25;;
19848;SDS011;10085;51.120;6.956;2022-11-14T08:15:54;6.60;;;3.85;;
19848;SDS011;10085;51.120;6.956;2022-11-14T08:21:15;10.90;;;4.55;;
19848;SDS011;10085;51.120;6.956;2022-11-14T08:26:37;15.27;;;4.90;;
19848;SDS011;10085;51.120;6.956;2022-11-14T08:31:59;13.60;;;4.57;;
19848;SDS011;10085;51.120;6.956;2022-11-14T08:37:21;12.15;;;5.63;;
19848;SDS011;10085;51.120;6.956;2022-11-14T08:42:42;12.52;;;6.60;;
19848;SDS011;10085;51.120;6.956;2022-11-14T08:48:04;13.77;;;5.03;;
19848;SDS011;10085;51.120;6.956;2022-11-14T08:53:26;17.98;;;4.47;;
19848;SDS011;10085;51.120;6.956;2022-11-14T08:58:47;16.08;;;4.68;;
19848;SDS011;10085;51.120;6.956;2022-11-14T09:04:09;14.48;;;4.70;;
19848;SDS011;10085;51.120;6.956;2022-11-14T09:09:31;10.65;;;5.05;;
19848;SDS011;10085;51.120;6.956;2022-11-14T09:14:52;10.35;;;4.70;;
19848;SDS011;10085;51.120;6.956;2022-11-14T09:20:15;9.55;;;4.75;;
19848;SDS011;10085;51.120;6.956;2022-11-14T09:25:36;13.10;;;6.50;;
19848;SDS011;10085;51.120;6.956;2022-11-14T09:31:00;12.75;;;5.00;;
19848;SDS011;10085;51.120;6.956;2022-11-14T09:36:23;10.48;;;4.65;;
19848;SDS011;10085;51.120;6.956;2022-11-14T09:41:47;8.65;;;4.57;;
19848;SDS011;10085;51.120;6.956;2022-11-14T09:47:16;16.23;;;4.85;;
19848;SDS011;10085;51.120;6.956;2022-11-14T09:52:42;8.63;;;4.90;;
19848;SDS011;10085;51.120;6.956;2022-11-14T09:58:07;9.70;;;5.22;;
19848;SDS011;10085;51.120;6.956;2022-11-14T10:03:32;10.35;;;5.10;;
19848;SDS011;10085;51.120;6.956;2022-11-14T10:09:09;10.90;;;4.95;;
19848;SDS011;10085;51.120;6.956;2022-11-14T10:14:52;11.23;;;4.80;;
19848;SDS011;10085;51.120;6.956;2022-11-14T10:20:19;12.25;;;5.25;;
19848;SDS011;10085;51.120;6.956;2022-11-14T10:25:50;8.55;;;4.95;;
19848;SDS011;10085;51.120;6.956;2022-11-14T10:31:27;10.07;;;4.65;;
19848;SDS011;10085;51.120;6.956;2022-11-14T10:36:56;16.55;;;5.15;;
19848;SDS011;10085;51.120;6.956;2022-11-14T10:42:24;10.48;;;5.25;;
19848;SDS011;10085;51.120;6.956;2022-11-14T10:47:51;11.38;;;5.53;;
19848;SDS011;10085;51.120;6.956;2022-11-14T10:53:17;11.48;;;5.95;;
19848;SDS011;10085;51.120;6.956;2022-11-14T10:58:44;10.52;;;5.53;;
19848;SDS011;10085;51.120;6.956;2022-11-14T11:04:13;8.55;;;4.78;;
19848;SDS011;10085;51.120;6.956;2022-11-14T11:09:40;8.57;;;5.05;;
19848;SDS011;10085;51.120;6.956;2022-11-14T11:15:17;9.20;;;5.13;;
19848;SDS011;10085;51.120;6.956;2022-11-14T11:20:40;9.68;;;5.20;;
19848;SDS011;10085;51.120;6.956;2022-11-14T11:26:02;7.53;;;4.55;;
19848;SDS011;10085;51.120;6.956;2022-11-14T11:31:27;8.45;;;4.82;;
19848;SDS011;10085;51.120;6.956;2022-11-14T11:37:12;10.65;;;5.82;;
19848;SDS011;10085;51.120;6.956;2022-11-14T11:42:36;10.38;;;5.35;;
19848;SDS011;10085;51.120;6.956;2022-11-14T11:48:22;9.27;;;5.13;;
19848;SDS011;10085;51.120;6.956;2022-11-14T11:53:45;8.27;;;4.40;;
19848;SDS011;10085;51.120;6.956;2022-11-14T11:59:13;9.43;;;4.40;;
19848;SDS011;10085;51.120;6.956;2022-11-14T12:04:42;8.15;;;4.45;;
19848;SDS011;10085;51.120;6.956;2022-11-14T12:10:05;7.32;;;4.15;;
19848;SDS011;10085;51.120;6.956;2022-11-14T12:15:31;9.07;;;4.75;;
19848;SDS011;10085;51.120;6.956;2022-11-14T12:21:04;7.63;;;4.35;;
19848;SDS011;10085;51.120;6.956;2022-11-14T12:26:34;7.35;;;4.00;;
19848;SDS011;10085;51.120;6.956;2022-11-14T12:32:05;8.63;;;4.13;;
19848;SDS011;10085;51.120;6.956;2022-11-14T12:37:32;5.95;;;4.00;;
19848;SDS011;10085;51.120;6.956;2022-11-14T12:42:54;7.32;;;4.35;;
19848;SDS011;10085;51.120;6.956;2022-11-14T12:48:20;6.45;;;4.15;;
19848;SDS011;10085;51.120;6.956;2022-11-14T12:53:43;6.82;;;4.03;;
19848;SDS011;10085;51.120;6.956;2022-11-14T12:59:21;8.23;;;4.38;;
19848;SDS011;10085;51.120;6.956;2022-11-14T13:04:52;6.18;;;4.00;;
19848;SDS011;10085;51.120;6.956;2022-11-14T13:10:23;5.88;;;3.95;;
19848;SDS011;10085;51.120;6.956;2022-11-14T13:15:48;7.13;;;4.07;;
19848;SDS011;10085;51.120;6.956;2022-11-14T13:21:29;5.68;;;3.63;;
19848;SDS011;10085;51.120;6.956;2022-11-14T13:33:06;8.20;;;4.20;;
19848;SDS011;10085;51.120;6.956;2022-11-14T13:44:29;6.70;;;3.80;;
19848;SDS011;10085;51.120;6.956;2022-11-14T13:50:13;7.00;;;4.10;;
19848;SDS011;10085;51.120;6.956;2022-11-14T13:55:38;6.38;;;4.30;;
19848;SDS011;10085;51.120;6.956;2022-11-14T14:01:14;6.57;;;3.97;;
19848;SDS011;10085;51.120;6.956;2022-11-14T14:06:46;6.63;;;3.95;;
19848;SDS011;10085;51.120;6.956;2022-11-14T14:12:25;6.60;;;3.83;;
19848;SDS011;10085;51.120;6.956;2022-11-14T14:17:59;6.15;;;3.67;;
19848;SDS011;10085;51.120;6.956;2022-11-14T14:23:29;6.80;;;3.97;;
19848;SDS011;10085;51.120;6.956;2022-11-14T14:28:57;5.93;;;3.78;;
19848;SDS011;10085;51.120;6.956;2022-11-14T14:34:27;5.68;;;3.70;;
19848;SDS011;10085;51.120;6.956;2022-11-14T14:39:57;5.72;;;3.70;;
19848;SDS011;10085;51.120;6.956;2022-11-14T14:45:19;6.40;;;3.47;;
19848;SDS011;10085;51.120;6.956;2022-11-14T14:50:47;7.53;;;3.95;;
19848;SDS011;10085;51.120;6.956;2022-11-14T14:56:16;5.82;;;4.00;;
19848;SDS011;10085;51.120;6.956;2022-11-14T15:01:38;7.00;;;4.47;;
19848;SDS011;10085;51.120;6.956;2022-11-14T15:07:01;6.18;;;3.80;;
19848;SDS011;10085;51.120;6.956;2022-11-14T15:12:23;5.70;;;3.53;;
19848;SDS011;10085;51.120;6.956;2022-11-14T15:17:46;5.28;;;3.60;;
19848;SDS011;10085;51.120;6.956;2022-11-14T15:23:18;6.53;;;3.88;;
19848;SDS011;10085;51.120;6.956;2022-11-14T15:28:40;6.30;;;3.92;;
19848;SDS011;10085;51.120;6.956;2022-11-14T15:34:03;5.30;;;3.63;;
19848;SDS011;10085;51.120;6.956;2022-11-14T15:39:27;6.20;;;3.80;;
19848;SDS011;10085;51.120;6.956;2022-11-14T15:44:48;7.45;;;3.88;;
19848;SDS011;10085;51.120;6.956;2022-11-14T15:50:24;6.93;;;4.00;;
19848;SDS011;10085;51.120;6.956;2022-11-14T15:55:49;8.68;;;4.13;;
19848;SDS011;10085;51.120;6.956;2022-11-14T16:01:12;8.27;;;4.60;;
19848;SDS011;10085;51.120;6.956;2022-11-14T16:06:36;7.55;;;4.47;;
19848;SDS011;10085;51.120;6.956;2022-11-14T16:11:58;7.28;;;4.05;;
19848;SDS011;10085;51.120;6.956;2022-11-14T16:17:19;10.52;;;4.85;;
19848;SDS011;10085;51.120;6.956;2022-11-14T16:22:41;9.90;;;4.65;;
19848;SDS011;10085;51.120;6.956;2022-11-14T16:28:04;7.50;;;4.55;;
19848;SDS011;10085;51.120;6.956;2022-11-14T16:33:25;8.48;;;4.45;;
19848;SDS011;10085;51.120;6.956;2022-11-14T16:38:47;6.85;;;4.13;;
19848;SDS011;10085;51.120;6.956;2022-11-14T16:44:14;8.18;;;4.15;;
19848;SDS011;10085;51.120;6.956;2022-11-14T16:49:36;7.97;;;4.78;;
19848;SDS011;10085;51.120;6.956;2022-11-14T16:54:58;6.70;;;3.90;;
19848;SDS011;10085;51.120;6.956;2022-11-14T17:00:20;7.97;;;4.15;;
19848;SDS011;10085;51.120;6.956;2022-11-14T17:05:42;7.95;;;3.97;;
19848;SDS011;10085;51.120;6.956;2022-11-14T17:11:06;7.60;;;3.85;;
19848;SDS011;10085;51.120;6.956;2022-11-14T17:16:29;11.32;;;4.60;;
19848;SDS011;10085;51.120;6.956;2022-11-14T17:21:50;8.38;;;4.40;;
19848;SDS011;10085;51.120;6.956;2022-11-14T17:27:11;7.28;;;4.18;;
19848;SDS011;10085;51.120;6.956;2022-11-14T17:32:33;8.32;;;4.32;;
19848;SDS011;10085;51.120;6.956;2022-11-14T17:37:54;7.28;;;4.50;;
19848;SDS011;10085;51.120;6.956;2022-11-14T17:43:19;8.27;;;4.63;;
19848;SDS011;10085;51.120;6.956;2022-11-14T17:48:41;7.60;;;4.22;;
19848;SDS011;10085;51.120;6.956;2022-11-14T17:54:03;8.27;;;4.32;;
19848;SDS011;10085;51.120;6.956;2022-11-14T17:59:24;6.80;;;4.18;;
19848;SDS011;10085;51.120;6.956;2022-11-14T18:04:47;8.13;;;4.38;;
19848;SDS011;10085;51.120;6.956;2022-11-14T18:10:08;7.30;;;4.55;;
19848;SDS011;10085;51.120;6.956;2022-11-14T18:15:29;8.25;;;4.43;;
19848;SDS011;10085;51.120;6.956;2022-11-14T18:20:51;7.05;;;4.30;;
19848;SDS011;10085;51.120;6.956;2022-11-14T18:26:16;6.22;;;4.13;;
19848;SDS011;10085;51.120;6.956;2022-11-14T18:31:38;7.20;;;4.45;;
19848;SDS011;10085;51.120;6.956;2022-11-14T18:37:00;12.05;;;4.25;;
19848;SDS011;10085;51.120;6.956;2022-11-14T18:42:22;9.82;;;4.63;;
19848;SDS011;10085;51.120;6.956;2022-11-14T18:47:43;6.78;;;4.22;;
19848;SDS011;10085;51.120;6.956;2022-11-14T18:53:06;7.80;;;4.18;;
19848;SDS011;10085;51.120;6.956;2022-11-14T18:58:27;7.82;;;4.75;;
19848;SDS011;10085;51.120;6.956;2022-11-14T19:03:49;8.25;;;4.13;;
19848;SDS011;10085;51.120;6.956;2022-11-14T19:09:12;8.90;;;4.50;;
19848;SDS011;10085;51.120;6.956;2022-11-14T19:14:35;7.28;;;4.50;;
19848;SDS011;10085;51.120;6.956;2022-11-14T19:19:56;9.35;;;4.82;;
19848;SDS011;10085;51.120;6.956;2022-11-14T19:25:19;8.88;;;4.68;;
19848;SDS011;10085;51.120;6.956;2022-11-14T19:30:41;8.35;;;4.68;;
19848;SDS011;10085;51.120;6.956;2022-11-14T19:36:06;9.27;;;4.75;;
19848;SDS011;10085;51.120;6.956;2022-11-14T19:41:30;7.90;;;4.88;;
19848;SDS011;10085;51.120;6.956;2022-11-14T19:46:51;10.07;;;4.55;;
19848;SDS011;10085;51.120;6.956;2022-11-14T19:52:12;7.78;;;4.35;;
19848;SDS011;10085;51.120;6.956;2022-11-14T19:57:38;7.10;;;4.28;;
19848;SDS011;10085;51.120;6.956;2022-11-14T20:02:59;8.70;;;4.80;;
19848;SDS011;10085;51.120;6.956;2022-11-14T20:08:20;8.77;;;4.60;;
19848;SDS011;10085;51.120;6.956;2022-11-14T20:13:43;7.35;;;4.65;;
19848;SDS011;10085;51.120;6.956;2022-11-14T20:19:05;6.95;;;4.55;;
19848;SDS011;10085;51.120;6.956;2022-11-14T20:24:26;7.72;;;4.53;;
19848;SDS011;10085;51.120;6.956;2022-11-14T20:29:48;6.47;;;4.43;;
19848;SDS011;10085;51.120;6.956;2022-11-14T20:35:09;7.30;;;4.63;;
19848;SDS011;10085;51.120;6.956;2022-11-14T20:40:31;7.97;;;4.85;;
19848;SDS011;10085;51.120;6.956;2022-11-14T20:45:57;9.15;;;4.88;;
19848;SDS011;10085;51.120;6.956;2022-11-14T20:51:19;7.82;;;4.70;;
19848;SDS011;10085;51.120;6.956;2022-11-14T20:56:41;8.60;;;5.00;;
19848;SDS011;10085;51.120;6.956;2022-11-14T21:02:03;7.80;;;4.85;;
19848;SDS011;10085;51.120;6.956;2022-11-14T21:07:24;8.05;;;4.72;;
19848;SDS011;10085;51.120;6.956;2022-11-14T21:12:45;9.45;;;4.90;;
19848;SDS011;10085;51.120;6.956;2022-11-14T21:18:28;9.10;;;5.00;;
19848;SDS011;10085;51.120;6.956;2022-11-14T21:23:50;8.32;;;4.72;;
19848;SDS011;10085;51.120;6.956;2022-11-14T21:29:11;7.55;;;4.60;;
19848;SDS011;10085;51.120;6.956;2022-11-14T21:34:35;8.25;;;4.80;;
19848;SDS011;10085;51.120;6.956;2022-11-14T21:39:56;10.25;;;5.68;;
19848;SDS011;10085;51.120;6.956;2022-11-14T21:45:17;8.18;;;5.20;;
19848;SDS011;10085;51.120;6.956;2022-11-14T21:50:40;8.65;;;5.50;;
19848;SDS011;10085;51.120;6.956;2022-11-14T21:56:08;9.48;;;5.95;;
19848;SDS011;10085;51.120;6.956;2022-11-14T22:01:30;10.65;;;6.15;;
19848;SDS011;10085;51.120;6.956;2022-11-14T22:07:10;9.27;;;5.80;;
19848;SDS011;10085;51.120;6.956;2022-11-14T22:12:31;9.05;;;5.60;;
19848;SDS011;10085;51.120;6.956;2022-11-14T22:17:53;8.63;;;5.55;;
19848;SDS011;10085;51.120;6.956;2022-11-14T22:23:16;9.88;;;5.20;;
19848;SDS011;10085;51.120;6.956;2022-11-14T22:28:38;8.60;;;5.53;;
19848;SDS011;10085;51.120;6.956;2022-11-14T22:33:59;8.68;;;5.45;;
19848;SDS011;10085;51.120;6.956;2022-11-14T22:39:22;9.75;;;5.72;;
19848;SDS011;10085;51.120;6.956;2022-11-14T22:44:43;8.57;;;5.20;;
19848;SDS011;10085;51.120;6.956;2022-11-14T22:50:05;9.32;;;5.88;;
19848;SDS011;10085;51.120;6.956;2022-11-14T22:55:28;7.68;;;5.15;;
19848;SDS011;10085;51.120;6.956;2022-11-14T23:00:49;7.95;;;5.40;;
19848;SDS011;10085;51.120;6.956;2022-11-14T23:06:11;8.48;;;5.38;;
19848;SDS011;10085;51.120;6.956;2022-11-14T23:11:36;7.47;;;4.90;;
19848;SDS011;10085;51.120;6.956;2022-11-14T23:16:57;7.50;;;4.88;;
19848;SDS011;10085;51.120;6.956;2022-11-14T23:22:18;8.13;;;5.30;;
19848;SDS011;10085;51.120;6.956;2022-11-14T23:27:41;7.57;;;5.07;;
19848;SDS011;10085;51.120;6.956;2022-11-14T23:33:02;7.97;;;4.65;;
19848;SDS011;10085;51.120;6.956;2022-11-14T23:38:24;6.72;;;4.90;;
19848;SDS011;10085;51.120;6.956;2022-11-14T23:43:46;8.60;;;5.10;;
19848;SDS011;10085;51.120;6.956;2022-11-14T23:49:07;7.60;;;4.53;;
19848;SDS011;10085;51.120;6.956;2022-11-14T23:54:29;7.82;;;4.65;;
19848;SDS011;10085;51.120;6.956;2022-11-14T23:59:51;5.93;;;4.25;;
